createdAt,value
2023-01-13T00:00:24.316Z,11.13
2023-01-13T00:01:07.921Z,11.14
2023-01-13T00:01:49.505Z,11.05
2023-01-13T00:02:31.155Z,11.16
2023-01-13T00:03:12.784Z,11.12
2023-01-13T00:03:54.841Z,11.15
2023-01-13T00:04:36.495Z,10.83
2023-01-13T00:05:18.304Z,11.01
2023-01-13T00:06:00.059Z,11.07
2023-01-13T00:06:41.720Z,10.79
2023-01-13T00:07:23.388Z,11.05
2023-01-13T00:08:06.285Z,11.06
2023-01-13T00:08:49.265Z,10.93
2023-01-13T00:09:30.816Z,11.03
2023-01-13T00:10:12.491Z,11.04
2023-01-13T00:10:54.073Z,10.99
2023-01-13T00:11:35.637Z,11.05
2023-01-13T00:12:17.297Z,10.96
2023-01-13T00:12:58.947Z,11.08
2023-01-13T00:13:40.543Z,11.07
2023-01-13T00:14:22.268Z,11.07
2023-01-13T00:15:04.150Z,11.09
2023-01-13T00:15:55.745Z,10.87
2023-01-13T00:16:38.433Z,11.06
2023-01-13T00:17:20.040Z,11.06
2023-01-13T00:18:01.739Z,11.04
2023-01-13T00:18:43.885Z,11.04
2023-01-13T00:19:25.448Z,11.04
2023-01-13T00:20:08.040Z,11.05
2023-01-13T00:20:58.985Z,10.98
2023-01-13T00:21:40.611Z,11.05
2023-01-13T00:22:22.413Z,11.02
2023-01-13T00:23:04.379Z,11.03
2023-01-13T00:23:46.816Z,11.05
2023-01-13T00:24:28.440Z,10.92
2023-01-13T00:25:10.116Z,11.04
2023-01-13T00:25:51.694Z,11.03
2023-01-13T00:26:35.739Z,10.99
2023-01-13T00:27:17.704Z,11.02
2023-01-13T00:27:59.261Z,11.03
2023-01-13T00:28:41.181Z,10.85
2023-01-13T00:29:22.863Z,10.81
2023-01-13T00:30:05.958Z,11.03
2023-01-13T00:30:47.454Z,11.04
2023-01-13T00:31:30.411Z,11.06
2023-01-13T00:32:12.309Z,11.06
2023-01-13T00:32:53.989Z,11.06
2023-01-13T00:33:36.308Z,11.04
2023-01-13T00:34:17.923Z,11.03
2023-01-13T00:34:59.610Z,11.01
2023-01-13T00:35:41.203Z,11.04
2023-01-13T00:36:22.827Z,11.07
2023-01-13T00:37:04.452Z,11.06
2023-01-13T00:37:46.024Z,11.03
2023-01-13T00:38:28.044Z,10.90
2023-01-13T00:39:09.735Z,11.03
2023-01-13T00:39:52.284Z,10.94
2023-01-13T00:40:33.922Z,11.02
2023-01-13T00:41:21.033Z,11.00
2023-01-13T00:42:21.218Z,10.76
2023-01-13T00:43:21.310Z,10.81
2023-01-13T00:44:02.940Z,10.95
2023-01-13T00:44:44.499Z,10.95
2023-01-13T00:45:26.074Z,10.94
2023-01-13T00:46:09.847Z,10.94
2023-01-13T00:46:51.522Z,10.93
2023-01-13T00:47:33.243Z,10.90
2023-01-13T00:48:14.767Z,10.86
2023-01-13T00:48:56.423Z,10.91
2023-01-13T00:49:38.165Z,10.84
2023-01-13T00:50:19.779Z,10.95
2023-01-13T00:51:04.648Z,10.96
2023-01-13T00:51:46.207Z,10.86
2023-01-13T00:52:27.816Z,10.95
2023-01-13T00:53:09.418Z,10.92
2023-01-13T00:53:51.896Z,10.77
2023-01-13T00:54:33.647Z,10.95
2023-01-13T00:55:15.287Z,10.99
2023-01-13T00:56:01.784Z,10.97
2023-01-13T00:56:43.346Z,10.96
2023-01-13T00:57:24.918Z,10.95
2023-01-13T00:58:06.503Z,10.94
2023-01-13T00:58:48.248Z,10.93
2023-01-13T00:59:29.874Z,10.93
2023-01-13T01:00:12.124Z,10.92
2023-01-13T01:00:53.836Z,10.82
2023-01-13T01:01:35.578Z,10.93
2023-01-13T01:02:17.249Z,10.84
2023-01-13T01:02:58.969Z,10.93
2023-01-13T01:03:40.721Z,10.88
2023-01-13T01:04:22.271Z,10.89
2023-01-13T01:05:04.008Z,10.91
2023-01-13T01:05:45.539Z,10.93
2023-01-13T01:06:28.009Z,10.94
2023-01-13T01:07:09.619Z,10.94
2023-01-13T01:07:51.296Z,10.93
2023-01-13T01:08:34.587Z,10.89
2023-01-13T01:09:16.882Z,10.92
2023-01-13T01:09:58.570Z,10.95
2023-01-13T01:10:40.208Z,10.96
2023-01-13T01:11:24.836Z,10.98
2023-01-13T01:12:06.691Z,10.82
2023-01-13T01:12:48.307Z,10.88
2023-01-13T01:13:29.985Z,10.98
2023-01-13T01:14:12.949Z,10.95
2023-01-13T01:14:54.591Z,10.95
2023-01-13T01:15:40.310Z,10.93
2023-01-13T01:16:24.295Z,10.91
2023-01-13T01:17:06.001Z,10.83
2023-01-13T01:17:47.561Z,10.89
2023-01-13T01:18:29.108Z,10.88
2023-01-13T01:19:10.699Z,10.94
2023-01-13T01:19:52.258Z,10.83
2023-01-13T01:20:33.848Z,10.89
2023-01-13T01:21:16.724Z,10.93
2023-01-13T01:21:58.279Z,10.92
2023-01-13T01:22:39.882Z,10.75
2023-01-13T01:23:21.479Z,10.59
2023-01-13T01:24:04.248Z,10.90
2023-01-13T01:24:47.757Z,10.86
2023-01-13T01:25:29.438Z,10.87
2023-01-13T01:26:26.009Z,10.86
2023-01-13T01:27:07.566Z,10.86
2023-01-13T01:27:49.105Z,10.77
2023-01-13T01:28:30.834Z,10.82
2023-01-13T01:29:15.482Z,10.80
2023-01-13T01:29:57.008Z,10.71
2023-01-13T01:30:39.455Z,10.58
2023-01-13T01:31:24.674Z,10.72
2023-01-13T01:32:06.310Z,10.71
2023-01-13T01:32:47.837Z,10.71
2023-01-13T01:33:29.400Z,10.55
2023-01-13T01:34:11.052Z,10.72
2023-01-13T01:34:52.643Z,10.68
2023-01-13T01:35:34.205Z,10.65
2023-01-13T01:36:18.000Z,10.53
2023-01-13T01:36:59.565Z,10.57
2023-01-13T01:37:41.109Z,10.53
2023-01-13T01:38:23.344Z,10.41
2023-01-13T01:39:05.325Z,10.38
2023-01-13T01:39:46.919Z,10.29
2023-01-13T01:40:28.631Z,10.32
2023-01-13T01:41:17.602Z,10.20
2023-01-13T01:42:17.760Z,10.27
2023-01-13T01:43:17.938Z,10.29
2023-01-13T01:44:04.159Z,10.23
2023-01-13T01:45:00.128Z,10.12
2023-01-13T01:45:41.712Z,10.22
2023-01-13T01:46:23.316Z,10.17
2023-01-13T01:47:05.075Z,10.02
2023-01-13T01:47:50.403Z,10.20
2023-01-13T01:48:40.662Z,10.13
2023-01-13T01:49:27.228Z,10.18
2023-01-13T01:50:10.036Z,10.11
2023-01-13T01:50:52.607Z,10.16
2023-01-13T01:51:43.624Z,10.10
2023-01-13T01:52:36.716Z,10.16
2023-01-13T01:53:21.392Z,10.11
2023-01-13T01:54:06.674Z,10.15
2023-01-13T01:54:58.588Z,10.12
2023-01-13T01:55:40.586Z,9.95
2023-01-13T01:56:22.326Z,9.98
2023-01-13T01:57:04.702Z,10.07
2023-01-13T01:57:58.524Z,10.05
2023-01-13T01:58:50.956Z,10.07
2023-01-13T01:59:34.725Z,9.96
2023-01-13T02:00:16.632Z,10.10
2023-01-13T02:00:59.060Z,10.06
2023-01-13T02:01:42.724Z,10.01
2023-01-13T02:02:24.893Z,10.05
2023-01-13T02:03:08.530Z,10.02
2023-01-13T02:03:59.287Z,9.81
2023-01-13T02:04:50.661Z,9.97
2023-01-13T02:05:34.271Z,9.89
2023-01-13T02:06:16.641Z,9.83
2023-01-13T02:06:58.805Z,9.94
2023-01-13T02:07:42.738Z,9.79
2023-01-13T02:08:24.985Z,9.90
2023-01-13T02:09:07.355Z,9.89
2023-01-13T02:09:49.649Z,9.86
2023-01-13T02:10:32.133Z,9.76
2023-01-13T02:11:52.476Z,9.84
2023-01-13T02:12:36.081Z,9.82
2023-01-13T02:13:17.682Z,9.81
2023-01-13T02:13:59.270Z,9.73
2023-01-13T02:14:41.985Z,9.88
2023-01-13T02:15:35.437Z,9.88
2023-01-13T02:16:23.214Z,9.85
2023-01-13T02:17:20.664Z,9.88
2023-01-13T02:18:26.699Z,9.91
2023-01-13T02:19:26.166Z,9.92
2023-01-13T02:20:32.227Z,9.92
2023-01-13T02:21:41.525Z,9.96
2023-01-13T02:22:28.842Z,10.01
2023-01-13T02:24:06.362Z,10.02
2023-01-13T02:24:59.926Z,10.04
2023-01-13T02:26:06.150Z,10.04
2023-01-13T02:27:14.805Z,9.95
2023-01-13T02:28:21.840Z,10.08
2023-01-13T02:29:52.219Z,10.09
2023-01-13T02:31:00.960Z,10.06
2023-01-13T02:31:48.374Z,10.09
2023-01-13T02:32:52.178Z,10.11
2023-01-13T02:34:00.783Z,10.01
2023-01-13T02:35:09.201Z,10.10
2023-01-13T02:35:54.112Z,10.24
2023-01-13T02:36:47.691Z,10.33
2023-01-13T02:37:33.010Z,10.36
2023-01-13T02:38:16.466Z,10.28
2023-01-13T02:39:09.191Z,10.35
2023-01-13T02:39:59.765Z,10.39
2023-01-13T02:41:35.702Z,10.38
2023-01-13T02:42:45.355Z,10.33
2023-01-13T02:43:57.521Z,10.40
2023-01-13T02:45:07.101Z,10.44
2023-01-13T02:45:55.887Z,10.43
2023-01-13T02:46:45.528Z,10.42
2023-01-13T02:47:30.108Z,10.44
2023-01-13T02:48:14.040Z,10.46
2023-01-13T02:49:01.158Z,10.33
2023-01-13T02:49:47.608Z,10.39
2023-01-13T02:50:34.285Z,10.36
2023-01-13T02:51:20.496Z,10.42
2023-01-13T02:52:09.663Z,10.24
2023-01-13T02:52:56.388Z,10.39
2023-01-13T02:53:40.712Z,10.46
2023-01-13T02:54:26.464Z,10.48
2023-01-13T02:55:14.345Z,10.46
2023-01-13T02:55:58.770Z,10.47
2023-01-13T02:56:44.473Z,10.46
2023-01-13T02:57:28.941Z,10.33
2023-01-13T02:58:15.522Z,10.42
2023-01-13T02:58:59.309Z,10.40
2023-01-13T02:59:42.669Z,10.41
2023-01-13T03:00:25.388Z,10.22
2023-01-13T03:01:07.110Z,10.38
2023-01-13T03:01:50.137Z,10.27
2023-01-13T03:02:31.989Z,10.21
2023-01-13T03:03:14.118Z,10.32
2023-01-13T03:03:55.731Z,10.34
2023-01-13T03:04:53.288Z,10.36
2023-01-13T03:05:38.979Z,10.27
2023-01-13T03:06:30.998Z,10.33
2023-01-13T03:07:17.996Z,10.33
2023-01-13T03:08:11.587Z,10.33
2023-01-13T03:08:59.489Z,10.12
2023-01-13T03:09:49.984Z,10.27
2023-01-13T03:10:49.910Z,10.22
2023-01-13T03:11:45.817Z,10.30
2023-01-13T03:12:55.143Z,10.29
2023-01-13T03:14:14.957Z,10.29
2023-01-13T03:15:23.486Z,10.27
2023-01-13T03:16:17.974Z,10.26
2023-01-13T03:17:05.231Z,10.24
2023-01-13T03:18:14.038Z,10.23
2023-01-13T03:19:14.659Z,10.18
2023-01-13T03:20:15.877Z,10.04
2023-01-13T03:21:09.582Z,10.13
2023-01-13T03:22:19.059Z,10.21
2023-01-13T03:23:12.712Z,10.19
2023-01-13T03:24:06.737Z,10.20
2023-01-13T03:25:06.846Z,10.20
2023-01-13T03:26:07.609Z,10.01
2023-01-13T03:26:59.033Z,10.20
2023-01-13T03:27:46.641Z,10.16
2023-01-13T03:28:33.383Z,10.20
2023-01-13T03:29:34.595Z,10.25
2023-01-13T03:30:24.604Z,10.27
2023-01-13T03:31:15.677Z,10.26
2023-01-13T03:32:02.924Z,10.29
2023-01-13T03:32:49.208Z,10.30
2023-01-13T03:33:39.363Z,10.29
2023-01-13T03:34:24.340Z,10.23
2023-01-13T03:35:24.835Z,10.28
2023-01-13T03:36:11.409Z,10.32
2023-01-13T03:36:55.758Z,10.33
2023-01-13T03:37:41.153Z,10.36
2023-01-13T03:38:36.946Z,10.03
2023-01-13T03:39:27.403Z,10.37
2023-01-13T03:40:15.600Z,10.34
2023-01-13T03:41:04.508Z,10.22
2023-01-13T03:41:53.184Z,10.34
2023-01-13T03:42:39.965Z,10.40
2023-01-13T03:43:49.120Z,10.41
2023-01-13T03:44:40.025Z,10.41
2023-01-13T03:45:21.718Z,10.32
2023-01-13T03:46:09.584Z,10.41
2023-01-13T03:47:12.713Z,10.53
2023-01-13T03:47:58.973Z,10.49
2023-01-13T03:48:43.576Z,10.48
2023-01-13T03:49:31.999Z,10.31
2023-01-13T03:50:22.191Z,10.51
2023-01-13T03:51:11.164Z,10.49
2023-01-13T03:51:58.313Z,10.50
2023-01-13T03:52:45.715Z,10.47
2023-01-13T03:53:36.039Z,10.49
2023-01-13T03:54:20.039Z,10.47
2023-01-13T03:55:12.728Z,10.52
2023-01-13T03:56:05.670Z,10.55
2023-01-13T03:56:57.063Z,10.56
2023-01-13T03:58:02.474Z,10.55
2023-01-13T03:58:49.184Z,10.59
2023-01-13T03:59:39.666Z,10.61
2023-01-13T04:00:29.908Z,10.54
2023-01-13T04:01:16.989Z,10.68
2023-01-13T04:02:06.816Z,10.69
2023-01-13T04:02:55.008Z,10.46
2023-01-13T04:03:47.121Z,10.65
2023-01-13T04:04:36.904Z,10.72
2023-01-13T04:05:18.956Z,10.60
2023-01-13T04:06:25.098Z,10.72
2023-01-13T04:07:09.377Z,10.83
2023-01-13T04:08:12.970Z,10.83
2023-01-13T04:09:35.890Z,10.84
2023-01-13T04:10:28.035Z,10.77
2023-01-13T04:11:15.361Z,10.81
2023-01-13T04:12:17.985Z,10.80
2023-01-13T04:13:05.189Z,10.80
2023-01-13T04:13:49.468Z,10.80
2023-01-13T04:14:31.512Z,10.80
2023-01-13T04:15:13.322Z,10.80
2023-01-13T04:15:55.009Z,10.83
2023-01-13T04:16:37.820Z,10.85
2023-01-13T04:17:19.892Z,10.76
2023-01-13T04:18:21.708Z,10.86
2023-01-13T04:19:03.331Z,10.88
2023-01-13T04:19:45.001Z,10.83
2023-01-13T04:20:26.685Z,10.89
2023-01-13T04:21:09.493Z,10.77
2023-01-13T04:21:51.095Z,10.84
2023-01-13T04:22:32.658Z,10.65
2023-01-13T04:23:15.638Z,10.85
2023-01-13T04:23:57.291Z,10.89
2023-01-13T04:24:38.892Z,10.86
2023-01-13T04:25:20.603Z,10.76
2023-01-13T04:26:02.230Z,10.72
2023-01-13T04:26:43.877Z,10.94
2023-01-13T04:27:25.511Z,10.92
2023-01-13T04:28:07.551Z,10.84
2023-01-13T04:28:49.239Z,10.91
2023-01-13T04:29:30.866Z,10.84
2023-01-13T04:30:12.686Z,10.89
2023-01-13T04:30:54.359Z,10.89
2023-01-13T04:31:36.065Z,10.89
2023-01-13T04:32:17.684Z,10.92
2023-01-13T04:32:59.684Z,10.92
2023-01-13T04:33:41.301Z,10.94
2023-01-13T04:34:22.876Z,10.94
2023-01-13T04:35:05.314Z,10.94
2023-01-13T04:35:47.765Z,10.92
2023-01-13T04:36:29.417Z,10.76
2023-01-13T04:37:11.340Z,10.85
2023-01-13T04:37:53.001Z,10.87
2023-01-13T04:38:34.628Z,10.91
2023-01-13T04:39:16.406Z,10.93
2023-01-13T04:39:58.451Z,10.86
2023-01-13T04:40:41.338Z,10.80
2023-01-13T04:41:22.930Z,10.82
2023-01-13T04:42:04.839Z,10.78
2023-01-13T04:42:46.595Z,10.93
2023-01-13T04:43:28.290Z,10.87
2023-01-13T04:44:12.779Z,10.93
2023-01-13T04:44:54.451Z,11.03
2023-01-13T04:45:36.319Z,10.96
2023-01-13T04:46:17.986Z,10.99
2023-01-13T04:46:59.679Z,10.88
2023-01-13T04:47:44.432Z,10.89
2023-01-13T04:48:25.989Z,10.76
2023-01-13T04:49:07.582Z,10.87
2023-01-13T04:49:49.207Z,10.85
2023-01-13T04:50:31.395Z,10.83
2023-01-13T04:51:13.025Z,10.65
2023-01-13T04:51:57.294Z,10.83
2023-01-13T04:52:38.965Z,10.72
2023-01-13T04:53:20.521Z,10.87
2023-01-13T04:54:02.141Z,10.86
2023-01-13T04:54:43.747Z,10.74
2023-01-13T04:55:25.370Z,10.83
2023-01-13T04:56:07.347Z,10.83
2023-01-13T04:56:48.979Z,10.84
2023-01-13T04:57:30.636Z,10.76
2023-01-13T04:58:12.299Z,10.75
2023-01-13T04:58:53.873Z,10.86
2023-01-13T04:59:35.549Z,10.59
2023-01-13T05:00:19.802Z,10.83
2023-01-13T05:01:01.455Z,10.68
2023-01-13T05:01:43.146Z,10.78
2023-01-13T05:02:24.796Z,10.86
2023-01-13T05:03:06.480Z,10.88
2023-01-13T05:03:48.073Z,10.90
2023-01-13T05:04:29.865Z,10.83
2023-01-13T05:05:11.867Z,10.71
2023-01-13T05:05:53.532Z,10.80
2023-01-13T05:06:35.156Z,10.71
2023-01-13T05:07:17.299Z,10.81
2023-01-13T05:07:58.937Z,10.79
2023-01-13T05:08:40.600Z,10.72
2023-01-13T05:09:22.236Z,10.81
2023-01-13T05:10:04.311Z,10.83
2023-01-13T05:10:45.956Z,10.93
2023-01-13T05:11:46.453Z,10.93
2023-01-13T05:12:47.133Z,10.95
2023-01-13T05:13:47.444Z,11.02
2023-01-13T05:14:47.563Z,10.93
2023-01-13T05:15:47.721Z,10.80
2023-01-13T05:16:47.751Z,11.03
2023-01-13T05:17:30.506Z,11.08
2023-01-13T05:18:12.879Z,11.08
2023-01-13T05:18:54.564Z,11.00
2023-01-13T05:19:40.735Z,11.03
2023-01-13T05:20:22.345Z,11.02
2023-01-13T05:21:03.959Z,11.04
2023-01-13T05:22:04.093Z,11.01
2023-01-13T05:23:04.310Z,10.99
2023-01-13T05:24:04.679Z,11.06
2023-01-13T05:25:04.779Z,11.08
2023-01-13T05:25:48.364Z,11.07
2023-01-13T05:26:30.023Z,11.06
2023-01-13T05:27:11.743Z,10.98
2023-01-13T05:27:55.891Z,11.08
2023-01-13T05:28:37.578Z,11.10
2023-01-13T05:29:19.235Z,11.13
2023-01-13T05:30:01.157Z,11.10
2023-01-13T05:30:45.995Z,11.16
2023-01-13T05:31:27.692Z,10.78
2023-01-13T05:32:09.375Z,10.91
2023-01-13T05:32:50.966Z,11.15
2023-01-13T05:33:34.903Z,11.15
2023-01-13T05:34:17.335Z,11.13
2023-01-13T05:34:58.926Z,10.96
2023-01-13T05:35:41.999Z,11.14
2023-01-13T05:36:23.636Z,11.14
2023-01-13T05:37:07.681Z,11.12
2023-01-13T05:37:49.367Z,11.12
2023-01-13T05:38:31.051Z,11.09
2023-01-13T05:39:12.819Z,11.07
2023-01-13T05:40:12.782Z,11.13
2023-01-13T05:41:12.901Z,11.00
2023-01-13T05:42:13.225Z,11.03
2023-01-13T05:43:20.481Z,11.10
2023-01-13T05:44:02.106Z,11.10
2023-01-13T05:44:43.758Z,11.06
2023-01-13T05:45:25.606Z,11.09
2023-01-13T05:46:09.366Z,11.12
2023-01-13T05:46:51.244Z,11.07
2023-01-13T05:47:32.875Z,11.18
2023-01-13T05:48:15.154Z,11.20
2023-01-13T05:48:56.787Z,11.22
2023-01-13T05:49:38.964Z,11.21
2023-01-13T05:50:21.529Z,11.16
2023-01-13T05:51:05.787Z,11.28
2023-01-13T05:51:47.442Z,11.22
2023-01-13T05:52:29.122Z,11.22
2023-01-13T05:53:10.913Z,11.09
2023-01-13T05:53:52.490Z,11.15
2023-01-13T05:54:34.101Z,10.89
2023-01-13T05:55:15.969Z,11.14
2023-01-13T05:55:58.196Z,11.12
2023-01-13T05:56:39.782Z,11.10
2023-01-13T05:57:21.398Z,11.08
2023-01-13T05:58:03.054Z,10.99
2023-01-13T05:58:44.804Z,11.06
2023-01-13T05:59:26.364Z,11.08
2023-01-13T06:00:08.766Z,11.13
2023-01-13T06:01:01.403Z,11.13
2023-01-13T06:01:43.039Z,11.07
2023-01-13T06:02:26.421Z,11.06
2023-01-13T06:03:08.154Z,11.21
2023-01-13T06:03:49.734Z,11.21
2023-01-13T06:04:31.436Z,11.22
2023-01-13T06:05:13.081Z,11.04
2023-01-13T06:05:58.801Z,11.20
2023-01-13T06:06:40.436Z,11.16
2023-01-13T06:07:22.020Z,10.81
2023-01-13T06:08:05.699Z,11.12
2023-01-13T06:08:47.317Z,10.98
2023-01-13T06:09:28.961Z,11.12
2023-01-13T06:10:11.160Z,11.08
2023-01-13T06:10:53.108Z,11.06
2023-01-13T06:11:34.752Z,11.06
2023-01-13T06:12:16.338Z,11.15
2023-01-13T06:12:58.073Z,11.15
2023-01-13T06:13:39.699Z,11.07
2023-01-13T06:14:21.366Z,11.06
2023-01-13T06:15:03.091Z,11.06
2023-01-13T06:15:44.840Z,11.11
2023-01-13T06:16:26.524Z,11.03
2023-01-13T06:17:14.024Z,11.14
2023-01-13T06:17:57.058Z,11.03
2023-01-13T06:18:38.681Z,11.03
2023-01-13T06:19:20.290Z,11.00
2023-01-13T06:20:01.951Z,11.15
2023-01-13T06:20:43.571Z,11.07
2023-01-13T06:21:25.245Z,11.14
2023-01-13T06:22:18.596Z,11.13
2023-01-13T06:23:01.115Z,11.00
2023-01-13T06:23:42.758Z,10.92
2023-01-13T06:24:24.840Z,11.05
2023-01-13T06:25:45.504Z,11.12
2023-01-13T06:26:30.004Z,11.11
2023-01-13T06:27:12.731Z,11.10
2023-01-13T06:27:56.315Z,11.01
2023-01-13T06:28:37.940Z,11.06
2023-01-13T06:29:19.788Z,11.04
2023-01-13T06:30:01.465Z,11.08
2023-01-13T06:30:50.621Z,11.04
2023-01-13T06:31:39.089Z,11.06
2023-01-13T06:32:34.884Z,11.08
2023-01-13T06:33:24.077Z,11.10
2023-01-13T06:34:12.868Z,11.04
2023-01-13T06:35:01.198Z,11.03
2023-01-13T06:35:47.114Z,11.06
2023-01-13T06:36:44.360Z,11.07
2023-01-13T06:37:27.433Z,11.07
2023-01-13T06:38:12.093Z,11.08
2023-01-13T06:38:58.594Z,11.01
2023-01-13T06:39:41.109Z,11.06
2023-01-13T06:40:23.895Z,11.14
2023-01-13T06:41:07.436Z,11.14
2023-01-13T06:42:10.865Z,10.99
2023-01-13T06:43:16.124Z,11.15
2023-01-13T06:43:58.870Z,11.15
2023-01-13T06:44:40.569Z,11.01
2023-01-13T06:45:25.096Z,11.07
2023-01-13T06:46:06.780Z,11.05
2023-01-13T06:46:48.600Z,11.14
2023-01-13T06:47:30.282Z,11.14
2023-01-13T06:48:12.314Z,11.13
2023-01-13T06:48:53.900Z,11.04
2023-01-13T06:49:35.701Z,11.14
2023-01-13T06:50:18.383Z,11.14
2023-01-13T06:51:00.070Z,11.05
2023-01-13T06:51:41.686Z,11.15
2023-01-13T06:52:23.477Z,11.05
2023-01-13T06:53:05.133Z,11.10
2023-01-13T06:53:46.714Z,11.07
2023-01-13T06:54:28.325Z,11.06
2023-01-13T06:55:09.940Z,10.98
2023-01-13T06:55:51.656Z,10.94
2023-01-13T06:56:33.265Z,10.83
2023-01-13T06:57:14.877Z,10.84
2023-01-13T06:57:58.106Z,10.80
2023-01-13T06:58:39.701Z,10.78
2023-01-13T06:59:22.466Z,10.80
2023-01-13T07:00:04.608Z,10.80
2023-01-13T07:00:51.112Z,10.88
2023-01-13T07:01:32.938Z,10.91
2023-01-13T07:02:14.746Z,10.85
2023-01-13T07:03:07.172Z,10.96
2023-01-13T07:03:48.892Z,10.91
2023-01-13T07:04:30.494Z,11.02
2023-01-13T07:05:12.312Z,11.02
2023-01-13T07:05:55.261Z,11.02
2023-01-13T07:06:36.903Z,10.52
2023-01-13T07:07:18.482Z,10.78
2023-01-13T07:08:00.357Z,10.78
2023-01-13T07:08:42.009Z,10.78
2023-01-13T07:09:23.735Z,10.69
2023-01-13T07:10:05.966Z,10.66
2023-01-13T07:10:47.652Z,10.52
2023-01-13T07:11:29.270Z,10.37
2023-01-13T07:12:11.979Z,10.23
2023-01-13T07:13:12.211Z,10.11
2023-01-13T07:14:12.161Z,9.98
2023-01-13T07:15:12.585Z,9.80
2023-01-13T07:15:56.521Z,9.79
2023-01-13T07:16:38.236Z,9.77
2023-01-13T07:17:25.054Z,9.75
2023-01-13T07:18:06.783Z,9.52
2023-01-13T07:18:48.411Z,9.76
2023-01-13T07:19:30.049Z,9.72
2023-01-13T07:20:11.970Z,9.72
2023-01-13T07:20:55.502Z,9.70
2023-01-13T07:21:37.323Z,9.71
2023-01-13T07:22:18.932Z,9.63
2023-01-13T07:23:00.596Z,9.62
2023-01-13T07:23:42.209Z,9.55
2023-01-13T07:24:23.887Z,9.63
2023-01-13T07:25:06.034Z,9.65
2023-01-13T07:25:47.716Z,9.47
2023-01-13T07:26:29.382Z,9.54
2023-01-13T07:27:11.029Z,9.52
2023-01-13T07:27:52.672Z,9.26
2023-01-13T07:28:34.469Z,9.63
2023-01-13T07:29:16.105Z,9.63
2023-01-13T07:29:57.673Z,9.56
2023-01-13T07:30:39.387Z,9.41
2023-01-13T07:31:21.736Z,9.59
2023-01-13T07:32:03.491Z,9.53
2023-01-13T07:32:45.312Z,9.47
2023-01-13T07:33:27.169Z,9.61
2023-01-13T07:34:08.802Z,9.41
2023-01-13T07:34:50.403Z,9.59
2023-01-13T07:35:32.097Z,9.53
2023-01-13T07:36:14.410Z,9.59
2023-01-13T07:36:55.986Z,9.53
2023-01-13T07:37:39.350Z,9.48
2023-01-13T07:38:20.991Z,9.51
2023-01-13T07:39:03.039Z,9.41
2023-01-13T07:39:45.359Z,9.30
2023-01-13T07:40:27.031Z,9.32
2023-01-13T07:41:31.407Z,9.35
2023-01-13T07:42:31.612Z,9.38
2023-01-13T07:43:31.878Z,9.20
2023-01-13T07:44:13.586Z,9.27
2023-01-13T07:44:57.630Z,9.03
2023-01-13T07:45:39.193Z,9.01
2023-01-13T07:46:20.843Z,9.10
2023-01-13T07:47:02.520Z,9.03
2023-01-13T07:47:44.189Z,8.65
2023-01-13T07:48:27.441Z,8.65
2023-01-13T07:49:09.978Z,8.82
2023-01-13T07:49:51.555Z,8.67
2023-01-13T07:50:33.213Z,8.52
2023-01-13T07:51:15.388Z,8.76
2023-01-13T07:51:56.999Z,8.74
2023-01-13T07:52:38.712Z,8.73
2023-01-13T07:53:21.427Z,8.67
2023-01-13T07:54:03.404Z,8.52
2023-01-13T07:54:45.001Z,8.67
2023-01-13T07:55:27.012Z,8.44
2023-01-13T07:56:09.227Z,8.52
2023-01-13T07:56:50.860Z,8.57
2023-01-13T07:57:32.486Z,8.53
2023-01-13T07:58:14.118Z,8.53
2023-01-13T07:58:55.751Z,8.47
2023-01-13T07:59:37.501Z,8.09
2023-01-13T08:00:19.713Z,8.51
2023-01-13T08:01:08.180Z,8.49
2023-01-13T08:01:52.628Z,8.48
2023-01-13T08:02:34.774Z,8.42
2023-01-13T08:03:16.410Z,8.40
2023-01-13T08:03:59.017Z,8.41
2023-01-13T08:04:40.741Z,8.46
2023-01-13T08:05:22.386Z,8.47
2023-01-13T08:06:05.074Z,8.48
2023-01-13T08:06:46.925Z,8.47
2023-01-13T08:07:28.620Z,8.46
2023-01-13T08:08:10.471Z,8.51
2023-01-13T08:08:53.614Z,8.54
2023-01-13T08:09:35.229Z,8.55
2023-01-13T08:10:17.060Z,8.50
2023-01-13T08:11:00.114Z,8.55
2023-01-13T08:11:41.806Z,8.50
2023-01-13T08:12:41.994Z,8.50
2023-01-13T08:13:36.248Z,8.50
2023-01-13T08:14:18.675Z,8.37
2023-01-13T08:15:00.297Z,8.46
2023-01-13T08:15:41.983Z,8.46
2023-01-13T08:16:24.380Z,8.49
2023-01-13T08:17:08.222Z,8.32
2023-01-13T08:17:49.869Z,8.30
2023-01-13T08:18:34.502Z,8.47
2023-01-13T08:19:16.177Z,8.39
2023-01-13T08:19:57.824Z,8.49
2023-01-13T08:20:39.508Z,8.62
2023-01-13T08:21:21.363Z,8.52
2023-01-13T08:22:03.077Z,8.58
2023-01-13T08:22:44.798Z,8.58
2023-01-13T08:23:26.523Z,8.65
2023-01-13T08:24:10.251Z,8.63
2023-01-13T08:24:51.875Z,8.64
2023-01-13T08:25:33.732Z,8.63
2023-01-13T08:26:18.038Z,8.62
2023-01-13T08:26:59.632Z,8.62
2023-01-13T08:27:41.319Z,8.56
2023-01-13T08:28:24.200Z,8.61
2023-01-13T08:29:05.807Z,8.59
2023-01-13T08:29:47.399Z,8.48
2023-01-13T08:30:29.259Z,8.38
2023-01-13T08:31:13.759Z,8.63
2023-01-13T08:31:55.501Z,8.67
2023-01-13T08:32:37.139Z,8.61
2023-01-13T08:33:20.629Z,8.71
2023-01-13T08:34:02.249Z,8.70
2023-01-13T08:34:43.997Z,8.62
2023-01-13T08:35:25.700Z,8.70
2023-01-13T08:36:09.938Z,8.72
2023-01-13T08:36:51.812Z,8.65
2023-01-13T08:37:33.467Z,8.69
2023-01-13T08:38:18.157Z,8.69
2023-01-13T08:38:59.871Z,8.69
2023-01-13T08:39:41.456Z,8.65
2023-01-13T08:40:23.073Z,8.71
2023-01-13T08:41:13.287Z,8.52
2023-01-13T08:41:55.028Z,8.64
2023-01-13T08:42:36.633Z,8.72
2023-01-13T08:43:18.281Z,8.75
2023-01-13T08:43:59.892Z,8.74
2023-01-13T08:44:41.533Z,8.63
2023-01-13T08:45:23.270Z,8.70
2023-01-13T08:46:05.279Z,8.72
2023-01-13T08:46:47.034Z,8.73
2023-01-13T08:47:28.693Z,8.74
2023-01-13T08:48:10.987Z,8.71
2023-01-13T08:48:52.598Z,8.75
2023-01-13T08:49:34.216Z,8.75
2023-01-13T08:50:16.077Z,8.75
2023-01-13T08:51:08.901Z,8.77
2023-01-13T08:51:51.322Z,8.58
2023-01-13T08:52:32.979Z,8.75
2023-01-13T08:53:14.651Z,8.65
2023-01-13T08:53:56.285Z,8.60
2023-01-13T08:54:39.244Z,8.79
2023-01-13T08:55:21.212Z,8.62
2023-01-13T08:56:07.196Z,8.74
2023-01-13T08:56:48.829Z,8.86
2023-01-13T08:57:30.663Z,8.85
2023-01-13T08:58:15.566Z,8.83
2023-01-13T08:58:58.768Z,8.82
2023-01-13T08:59:40.506Z,8.83
2023-01-13T09:00:22.329Z,8.85
2023-01-13T09:01:05.536Z,8.86
2023-01-13T09:01:47.431Z,8.53
2023-01-13T09:02:29.178Z,8.76
2023-01-13T09:03:10.838Z,8.84
2023-01-13T09:03:53.164Z,8.76
2023-01-13T09:04:35.006Z,8.67
2023-01-13T09:05:17.811Z,8.72
2023-01-13T09:05:59.748Z,8.89
2023-01-13T09:06:41.419Z,8.83
2023-01-13T09:07:23.087Z,8.85
2023-01-13T09:08:04.842Z,8.82
2023-01-13T09:08:47.657Z,8.87
2023-01-13T09:09:29.339Z,8.86
2023-01-13T09:10:11.121Z,8.80
2023-01-13T09:10:52.743Z,8.80
2023-01-13T09:11:55.742Z,8.80
2023-01-13T09:12:55.962Z,8.80
2023-01-13T09:13:37.615Z,8.86
2023-01-13T09:14:25.053Z,8.82
2023-01-13T09:15:07.346Z,8.80
2023-01-13T09:15:49.105Z,8.77
2023-01-13T09:16:30.768Z,8.55
2023-01-13T09:17:12.410Z,8.77
2023-01-13T09:17:54.076Z,8.71
2023-01-13T09:18:35.805Z,8.76
2023-01-13T09:19:17.506Z,8.77
2023-01-13T09:19:59.428Z,8.58
2023-01-13T09:20:41.440Z,8.72
2023-01-13T09:21:23.152Z,8.73
2023-01-13T09:22:04.969Z,8.74
2023-01-13T09:22:46.711Z,8.76
2023-01-13T09:23:28.389Z,8.77
2023-01-13T09:24:10.172Z,8.75
2023-01-13T09:24:51.937Z,8.77
2023-01-13T09:25:36.506Z,8.76
2023-01-13T09:26:21.516Z,8.82
2023-01-13T09:27:03.345Z,8.83
2023-01-13T09:27:44.957Z,8.86
2023-01-13T09:28:26.661Z,8.88
2023-01-13T09:29:08.292Z,8.60
2023-01-13T09:29:50.449Z,8.87
2023-01-13T09:30:32.309Z,8.84
2023-01-13T09:31:14.048Z,8.79
2023-01-13T09:31:58.033Z,8.60
2023-01-13T09:32:39.732Z,8.92
2023-01-13T09:33:39.869Z,8.92
2023-01-13T09:34:40.076Z,8.99
2023-01-13T09:35:21.800Z,9.00
2023-01-13T09:36:03.653Z,9.00
2023-01-13T09:36:45.456Z,9.00
2023-01-13T09:37:38.316Z,9.02
2023-01-13T09:38:19.986Z,8.94
2023-01-13T09:39:01.781Z,8.97
2023-01-13T09:39:43.845Z,9.09
2023-01-13T09:40:25.656Z,9.09
2023-01-13T09:41:27.348Z,8.94
2023-01-13T09:42:36.646Z,9.17
2023-01-13T09:43:42.340Z,9.21
2023-01-13T09:44:33.624Z,9.21
2023-01-13T09:45:42.425Z,9.20
2023-01-13T09:46:47.113Z,9.23
2023-01-13T09:47:47.684Z,9.32
2023-01-13T09:48:51.663Z,9.35
2023-01-13T09:49:41.912Z,9.45
2023-01-13T09:50:26.621Z,9.49
2023-01-13T09:51:09.615Z,9.51
2023-01-13T09:51:54.160Z,9.55
2023-01-13T09:52:36.966Z,9.52
2023-01-13T09:53:28.319Z,9.54